Time;durP1;ratioP1;P1;durP2;ratioP2;P2;SDS_P1;SDS_P2;PMS_P1;PMS_P2;Temp;Humidity;BMP_temperature;BMP_pressure;BME280_temperature;BME280_humidity;BME280_pressure;Samples;Min_cycle;Max_cycle;Signal;HPM_P1;HPM_P2
2022/07/15 00:00:21;;;;;;;5.10;2.10;;;;;;;16.91;50.63;100229.12;109632;1263;22820;-76
2022/07/15 00:03:04;;;;;;;3.60;2.50;;;;;;;16.83;50.91;100234.48;109496;1263;23820;-76
2022/07/15 00:05:33;;;;;;;4.40;2.60;;;;;;;16.78;51.50;100236.13;109658;1263;22000;-76
2022/07/15 00:08:02;;;;;;;7.40;2.50;;;;;;;16.73;51.86;100235.36;109220;1264;22758;-76
2022/07/15 00:10:31;;;;;;;6.60;2.50;;;;;;;16.68;51.95;100234.80;109519;1263;22333;-75
2022/07/15 00:13:01;;;;;;;9.60;3.00;;;;;;;16.65;52.37;100235.79;109199;1263;23709;-76
2022/07/15 00:15:32;;;;;;;6.60;3.00;;;;;;;16.63;52.66;100239.09;109462;1263;23660;-76
2022/07/15 00:18:03;;;;;;;4.50;1.90;;;;;;;16.60;52.91;100230.39;109235;1263;21991;-76
2022/07/15 00:20:35;;;;;;;10.10;2.20;;;;;;;16.56;52.97;100231.35;109274;1263;23061;-76
2022/07/15 00:23:06;;;;;;;;;;;;;;;16.50;53.25;100232.51;109510;1263;22024;-76
2022/07/15 00:25:35;;;;;;;5.10;2.10;;;;;;;16.37;53.57;100232.27;109541;1263;22108;-76
2022/07/15 00:28:07;;;;;;;5.20;2.20;;;;;;;16.31;53.78;100232.65;109572;1263;22271;-76
2022/07/15 00:30:41;;;;;;;9.10;2.60;;;;;;;16.26;53.83;100231.71;109546;1262;23597;-76
2022/07/15 00:33:10;;;;;;;7.50;2.50;;;;;;;16.18;53.95;100229.98;109556;1263;23815;-75
2022/07/15 00:35:39;;;;;;;7.60;2.80;;;;;;;16.12;54.23;100231.19;109505;1263;21998;-76
2022/07/15 00:38:09;;;;;;;5.00;2.20;;;;;;;16.09;54.45;100231.60;109552;1263;22432;-76
2022/07/15 00:40:47;;;;;;;3.70;2.00;;;;;;;16.06;54.63;100238.41;109683;1263;22014;-76
2022/07/15 00:43:18;;;;;;;4.90;2.10;;;;;;;16.03;54.79;100240.59;108816;1270;22084;-76
2022/07/15 00:45:47;;;;;;;6.60;1.80;;;;;;;15.99;55.06;100244.16;109058;1266;22594;-77
2022/07/15 00:48:16;;;;;;;6.70;2.10;;;;;;;15.92;55.19;100246.30;109028;1266;22001;-75
2022/07/15 00:50:49;;;;;;;3.70;2.10;;;;;;;15.86;55.37;100249.56;109135;1266;21992;-76
2022/07/15 00:53:20;;;;;;;4.40;1.90;;;;;;;15.80;55.58;100251.58;109121;1266;22736;-76
2022/07/15 00:55:56;;;;;;;5.30;2.00;;;;;;;15.73;55.86;100254.19;109138;1266;22165;-76
2022/07/15 00:58:29;;;;;;;6.00;2.20;;;;;;;15.68;56.21;100255.27;109115;1267;22024;-78
2022/07/15 01:00:58;;;;;;;4.10;1.60;;;;;;;15.64;56.34;100254.89;108983;1263;22083;-76
2022/07/15 01:03:30;;;;;;;6.00;2.00;;;;;;;15.63;56.52;100255.39;109553;1263;22988;-76
2022/07/15 01:06:01;;;;;;;4.70;2.00;;;;;;;15.64;56.51;100257.88;109322;1264;22940;-76
2022/07/15 01:08:30;;;;;;;10.40;2.50;;;;;;;15.63;56.29;100255.55;109224;1263;21988;-75
2022/07/15 01:10:59;;;;;;;6.30;2.10;;;;;;;15.62;56.30;100258.54;109302;1263;22073;-76
2022/07/15 01:13:28;;;;;;;5.20;1.80;;;;;;;15.61;56.08;100261.23;109588;1263;22389;-77
2022/07/15 01:15:58;;;;;;;5.60;2.00;;;;;;;15.61;56.09;100264.10;109887;1261;22865;-77
2022/07/15 01:18:28;;;;;;;5.20;1.80;;;;;;;15.59;55.96;100262.95;109566;1263;23590;-76
2022/07/15 01:20:57;;;;;;;5.90;1.70;;;;;;;15.57;56.09;100253.00;109780;1262;21984;-77
2022/07/15 01:23:26;;;;;;;4.70;1.60;;;;;;;15.54;56.11;100246.93;109560;1263;21994;-77
2022/07/15 01:26:02;;;;;;;7.40;2.10;;;;;;;15.52;56.10;100244.84;109768;1262;22211;-77
2022/07/15 01:28:31;;;;;;;4.80;1.80;;;;;;;15.52;56.20;100251.27;109872;1262;21992;-76
2022/07/15 01:31:00;;;;;;;5.80;1.90;;;;;;;15.53;56.14;100252.91;109876;1262;21984;-76
2022/07/15 01:33:33;;;;;;;6.40;1.80;;;;;;;15.54;56.20;100255.65;109850;1261;23169;-77
2022/07/15 01:36:03;;;;;;;5.20;1.90;;;;;;;15.52;56.09;100260.52;109510;1263;23130;-78
2022/07/15 01:38:34;;;;;;;5.90;2.00;;;;;;;15.49;56.28;100263.59;109853;1261;23071;-77
2022/07/15 01:41:17;;;;;;;6.40;2.00;;;;;;;15.44;56.46;100265.34;109509;1263;23043;-77
2022/07/15 01:43:47;;;;;;;6.00;1.90;;;;;;;15.39;56.58;100268.11;109601;1263;23723;-76
2022/07/15 01:46:16;;;;;;;4.00;1.50;;;;;;;15.33;56.81;100260.48;109497;1263;21984;-78
2022/07/15 01:51:58;;;;;;;5.30;2.10;;;;;;;15.24;57.34;100258.90;109572;1263;22019;-77
2022/07/15 01:54:30;;;;;;;4.10;2.00;;;;;;;15.23;57.56;100258.33;109912;1262;23064;-77
2022/07/15 01:57:03;;;;;;;3.90;2.00;;;;;;;15.24;57.62;100260.17;109566;1263;22035;-77
2022/07/15 01:59:37;;;;;;;5.70;1.90;;;;;;;15.24;57.57;100263.65;109575;1263;21967;-77
2022/07/15 02:02:07;;;;;;;5.40;2.00;;;;;;;15.24;57.42;100262.38;109760;1263;23710;-76
2022/07/15 02:04:36;;;;;;;4.60;1.90;;;;;;;15.24;57.31;100260.05;109528;1263;21985;-77
2022/07/15 02:07:06;;;;;;;6.30;2.40;;;;;;;15.24;57.15;100256.85;109225;1263;23064;-77
2022/07/15 02:09:36;;;;;;;4.40;2.00;;;;;;;15.24;57.03;100255.54;109534;1263;22472;-77
2022/07/15 02:12:06;;;;;;;4.00;1.60;;;;;;;15.23;56.98;100259.35;109347;1263;23761;-77
2022/07/15 02:14:40;;;;;;;6.40;2.10;;;;;;;15.21;57.06;100263.35;109718;1262;22125;-77
2022/07/15 02:17:10;;;;;;;5.00;1.90;;;;;;;15.21;57.09;100265.64;109374;1264;22045;-77
2022/07/15 02:19:42;;;;;;;4.50;1.80;;;;;;;15.22;57.08;100269.30;109195;1265;22079;-77
2022/07/15 02:22:11;;;;;;;4.70;2.10;;;;;;;15.24;57.13;100270.37;109130;1265;22014;-75
2022/07/15 02:24:42;;;;;;;5.50;1.90;;;;;;;15.27;57.04;100269.61;109294;1265;23586;-75
2022/07/15 02:27:17;;;;;;;7.70;2.30;;;;;;;15.29;57.03;100270.59;109370;1263;22199;-76
2022/07/15 02:29:46;;;;;;;6.20;2.50;;;;;;;15.31;56.92;100275.84;109223;1267;22037;-76
2022/07/15 02:32:18;;;;;;;6.40;1.90;;;;;;;15.34;56.96;100294.15;109192;1265;21983;-75
2022/07/15 02:34:47;;;;;;;7.20;2.00;;;;;;;15.33;56.96;100296.15;109617;1261;23727;-76
2022/07/15 02:37:16;;;;;;;7.90;2.00;;;;;;;15.34;57.03;100302.63;109777;1262;22743;-75
2022/07/15 02:39:50;;;;;;;4.50;1.80;;;;;;;15.32;56.85;100306.62;109798;1261;23677;-76
2022/07/15 02:42:20;;;;;;;4.70;2.30;;;;;;;15.28;56.82;100306.36;109567;1260;21998;-75
2022/07/15 02:44:49;;;;;;;5.70;2.00;;;;;;;15.26;56.83;100307.63;109769;1262;21969;-75
2022/07/15 02:47:18;;;;;;;4.70;2.10;;;;;;;15.25;56.82;100308.61;109929;1260;21986;-76
2022/07/15 02:49:47;;;;;;;3.60;1.70;;;;;;;15.24;56.87;100314.87;109239;1267;21992;-75
2022/07/15 02:52:16;;;;;;;6.40;2.30;;;;;;;15.25;56.82;100316.48;108964;1267;22085;-75
2022/07/15 02:54:48;;;;;;;5.20;2.40;;;;;;;15.24;56.83;100313.35;108921;1266;23046;-75
2022/07/15 02:57:18;;;;;;;3.80;2.20;;;;;;;15.22;56.83;100316.57;109283;1267;21988;-75
2022/07/15 02:59:48;;;;;;;7.10;2.80;;;;;;;15.19;56.96;100320.01;109088;1267;21964;-75
2022/07/15 03:02:18;;;;;;;6.20;2.60;;;;;;;15.19;57.02;100324.59;109199;1267;23222;-75
2022/07/15 03:04:47;;;;;;;6.30;2.40;;;;;;;15.18;57.00;100326.14;108925;1266;22021;-76
2022/07/15 03:07:17;;;;;;;8.00;2.30;;;;;;;15.17;56.88;100329.65;109017;1261;23056;-75
2022/07/15 03:09:47;;;;;;;6.80;3.20;;;;;;;15.18;57.03;100331.88;109598;1260;22031;-76
2022/07/15 03:12:16;;;;;;;5.10;2.30;;;;;;;15.20;57.06;100336.02;109516;1261;21989;-76
2022/07/15 03:14:45;;;;;;;4.20;2.10;;;;;;;15.20;56.93;100341.88;109586;1262;21982;-76
2022/07/15 03:17:14;;;;;;;4.10;2.40;;;;;;;15.21;57.13;100348.21;109564;1262;21972;-76
2022/07/15 03:19:44;;;;;;;7.20;2.70;;;;;;;15.20;57.19;100348.26;109613;1261;23038;-76
2022/07/15 03:22:13;;;;;;;3.50;2.80;;;;;;;15.21;57.35;100354.23;109757;1262;21981;-76
2022/07/15 03:24:42;;;;;;;5.30;2.90;;;;;;;15.19;57.28;100356.89;109573;1261;21992;-76
2022/07/15 03:27:11;;;;;;;5.20;2.40;;;;;;;15.19;57.45;100355.70;109754;1262;23145;-75
2022/07/15 03:29:43;;;;;;;4.90;2.60;;;;;;;15.20;57.47;100360.05;109111;1265;23700;-76
2022/07/15 03:32:15;;;;;;;9.20;2.90;;;;;;;15.20;57.50;100361.93;109158;1265;23025;-76
2022/07/15 03:34:45;;;;;;;5.10;2.70;;;;;;;15.22;57.72;100361.52;109361;1265;21981;-77
2022/07/15 03:37:15;;;;;;;8.20;2.50;;;;;;;15.27;57.83;100361.52;108655;1270;22448;-76
2022/07/15 03:39:44;;;;;;;4.50;2.40;;;;;;;15.32;57.86;100363.59;108564;1271;23219;-76
2022/07/15 03:42:14;;;;;;;7.80;2.40;;;;;;;15.38;57.96;100363.23;108711;1272;22356;-76
2022/07/15 03:44:44;;;;;;;7.20;2.10;;;;;;;15.39;57.88;100364.15;108452;1276;22047;-75
2022/07/15 03:47:13;;;;;;;4.90;2.60;;;;;;;15.39;57.83;100367.25;108463;1274;22103;-77
2022/07/15 03:49:42;;;;;;;4.20;2.50;;;;;;;15.40;57.82;100370.49;108697;1273;22537;-75
2022/07/15 03:52:11;;;;;;;8.20;2.60;;;;;;;15.41;57.99;100372.45;108697;1273;21999;-75
2022/07/15 03:54:41;;;;;;;5.00;2.80;;;;;;;15.46;58.03;100377.07;108444;1270;23720;-74
2022/07/15 03:57:10;;;;;;;4.60;2.60;;;;;;;15.49;57.94;100378.52;108987;1269;22932;-75
2022/07/15 03:59:39;;;;;;;6.30;2.20;;;;;;;15.55;57.86;100381.16;108674;1273;23860;-75
2022/07/15 04:02:08;;;;;;;6.60;2.40;;;;;;;15.62;57.80;100383.27;108687;1267;21989;-77
2022/07/15 04:04:37;;;;;;;3.90;2.70;;;;;;;15.66;57.69;100387.54;108991;1265;23071;-75
2022/07/15 04:07:06;;;;;;;4.80;2.30;;;;;;;15.69;57.49;100394.05;109159;1267;22023;-76
2022/07/15 04:09:35;;;;;;;9.70;2.90;;;;;;;15.71;57.31;100392.45;109273;1266;21984;-75
2022/07/15 04:12:04;;;;;;;5.70;2.70;;;;;;;15.71;57.24;100391.12;109015;1267;23632;-75
2022/07/15 04:14:39;;;;;;;10.10;3.30;;;;;;;15.72;57.14;100394.20;109234;1265;22275;-76
2022/07/15 04:17:08;;;;;;;4.80;2.70;;;;;;;15.73;57.09;100398.54;109066;1262;21972;-76
2022/07/15 04:19:39;;;;;;;7.10;3.40;;;;;;;15.74;57.05;100395.71;109985;1261;21961;-76
2022/07/15 04:22:08;;;;;;;6.20;3.00;;;;;;;15.72;56.76;100400.30;109559;1263;22427;-77
2022/07/15 04:24:42;;;;;;;5.70;2.30;;;;;;;15.66;56.83;100406.00;109347;1261;24414;-76
2022/07/15 04:27:13;;;;;;;;;;;;;;;15.65;57.17;100410.80;109749;1261;24075;-76
2022/07/15 04:29:42;;;;;;;5.60;3.20;;;;;;;15.59;57.29;100414.60;109624;1261;22831;-75
2022/07/15 04:32:13;;;;;;;5.90;2.50;;;;;;;15.63;57.50;100412.33;109720;1262;22052;-76
2022/07/15 04:34:47;;;;;;;11.10;3.20;;;;;;;15.70;57.50;100416.88;109844;1260;23133;-75
2022/07/15 04:37:16;;;;;;;5.90;2.60;;;;;;;15.77;57.51;100419.54;109886;1261;22417;-76
2022/07/15 04:39:49;;;;;;;8.00;2.50;;;;;;;15.84;57.60;100415.81;108932;1268;21987;-74
2022/07/15 04:42:18;;;;;;;4.00;1.70;;;;;;;15.91;57.42;100418.09;109051;1267;23048;-74
2022/07/15 04:44:48;;;;;;;3.80;2.20;;;;;;;15.92;56.96;100421.66;109136;1267;21991;-74
2022/07/15 04:47:17;;;;;;;7.60;2.20;;;;;;;15.93;57.17;100421.63;108886;1267;23602;-76
2022/07/15 04:52:48;;;;;;;7.40;2.10;;;;;;;16.05;57.01;100428.70;108931;1267;23694;-76
2022/07/15 04:55:18;;;;;;;6.40;2.40;;;;;;;16.09;56.88;100429.79;109004;1267;22125;-75
2022/07/15 04:57:52;;;;;;;6.40;2.80;;;;;;;16.11;56.70;100429.09;109157;1267;23683;-75
2022/07/15 05:00:21;;;;;;;6.90;2.30;;;;;;;16.15;56.80;100434.66;108604;1271;23209;-75
2022/07/15 05:02:53;;;;;;;4.30;1.90;;;;;;;16.24;56.97;100436.20;108696;1270;23096;-81
2022/07/15 05:05:25;;;;;;;7.00;2.40;;;;;;;16.36;56.83;100440.15;108786;1270;21966;-77
2022/07/15 05:07:54;;;;;;;7.00;2.60;;;;;;;16.50;56.76;100438.94;109021;1268;22076;-77
2022/07/15 05:10:24;;;;;;;7.40;2.70;;;;;;;16.67;56.81;100447.27;108870;1268;22751;-80
2022/07/15 05:12:59;;;;;;;9.20;3.10;;;;;;;16.87;56.64;100447.95;109161;1267;21995;-77
2022/07/15 05:15:28;;;;;;;5.80;1.70;;;;;;;17.10;56.40;100447.15;108942;1270;21996;-76
2022/07/15 05:18:00;;;;;;;5.60;2.50;;;;;;;17.29;55.37;100450.47;108868;1268;22982;-77
2022/07/15 05:20:29;;;;;;;5.20;1.90;;;;;;;17.43;54.62;100453.43;109086;1267;21973;-77
2022/07/15 05:22:58;;;;;;;6.60;1.70;;;;;;;17.60;54.22;100456.81;108796;1270;25084;-78
2022/07/15 05:25:28;;;;;;;7.50;1.80;;;;;;;17.74;53.88;100455.99;109093;1267;22035;-77
2022/07/15 05:27:58;;;;;;;7.40;1.90;;;;;;;17.93;53.75;100463.66;109193;1267;22997;-75
2022/07/15 05:30:27;;;;;;;6.00;1.70;;;;;;;18.09;53.05;100468.52;109109;1267;22295;-76
2022/07/15 05:33:09;;;;;;;3.90;1.60;;;;;;;18.23;52.35;100470.41;109253;1266;21984;-76
2022/07/15 05:35:38;;;;;;;6.80;3.40;;;;;;;18.37;51.82;100468.19;108813;1270;23037;-76
2022/07/15 05:38:12;;;;;;;4.80;1.40;;;;;;;18.51;51.22;100469.15;108832;1270;23098;-76
2022/07/15 05:40:42;;;;;;;6.80;1.70;;;;;;;18.64;50.71;100473.25;108878;1270;23171;-83
2022/07/15 05:43:11;;;;;;;7.20;1.80;;;;;;;18.79;50.22;100474.09;109006;1270;24390;-77
2022/07/15 05:45:41;;;;;;;10.40;3.20;;;;;;;19.05;50.34;100469.96;108903;1270;22975;-78
2022/07/15 05:48:11;;;;;;;6.70;2.80;;;;;;;19.32;49.47;100472.20;108786;1270;22259;-77
2022/07/15 05:50:44;;;;;;;7.90;1.70;;;;;;;19.55;48.82;100472.83;108897;1269;23187;-75
2022/07/15 05:53:14;;;;;;;6.50;1.70;;;;;;;19.84;48.43;100479.19;109047;1261;21985;-75
2022/07/15 05:55:44;;;;;;;12.00;1.80;;;;;;;20.12;47.46;100486.88;109796;1261;21966;-76
2022/07/15 05:58:18;;;;;;;7.40;1.70;;;;;;;20.44;47.11;100493.02;109131;1267;23130;-80
2022/07/15 06:00:50;;;;;;;8.90;1.80;;;;;;;20.74;46.09;100494.77;109018;1267;22124;-76
2022/07/15 06:03:19;;;;;;;7.30;1.90;;;;;;;21.03;45.64;100492.88;109055;1267;23625;-76
2022/07/15 06:05:49;;;;;;;4.40;2.00;;;;;;;21.30;44.48;100495.27;109326;1267;22563;-75
2022/07/15 06:08:18;;;;;;;7.50;2.50;;;;;;;21.46;43.53;100495.69;108993;1268;23741;-75
2022/07/15 06:10:48;;;;;;;7.70;1.70;;;;;;;21.63;43.39;100499.93;108667;1270;21986;-75
2022/07/15 06:13:19;;;;;;;6.00;1.40;;;;;;;21.89;43.04;100499.91;108597;1273;22052;-75
2022/07/15 06:15:49;;;;;;;4.60;1.80;;;;;;;22.04;42.13;100505.86;108866;1268;23048;-75
2022/07/15 06:18:21;;;;;;;5.00;2.00;;;;;;;22.25;41.97;100501.48;109136;1267;23660;-74
2022/07/15 06:20:52;;;;;;;4.70;1.50;;;;;;;22.54;41.71;100508.24;109046;1267;23700;-75
2022/07/15 06:23:21;;;;;;;5.40;1.50;;;;;;;22.77;40.47;100510.59;108943;1267;21991;-75
2022/07/15 06:25:50;;;;;;;6.20;1.30;;;;;;;22.88;40.20;100517.11;109134;1267;21962;-74
2022/07/15 06:28:19;;;;;;;7.00;1.90;;;;;;;23.00;39.13;100515.38;109115;1264;23606;-74
2022/07/15 06:30:48;;;;;;;2.80;1.10;;;;;;;22.93;38.38;100515.10;109740;1261;23139;-74
2022/07/15 06:33:17;;;;;;;4.30;1.80;;;;;;;22.95;38.58;100511.23;109739;1262;23129;-77
2022/07/15 06:35:50;;;;;;;4.70;1.60;;;;;;;22.94;37.95;100512.69;109154;1267;22317;-80
2022/07/15 06:38:19;;;;;;;5.10;1.30;;;;;;;23.03;38.08;100516.06;108653;1271;22569;-75
2022/07/15 06:40:49;;;;;;;8.10;2.20;;;;;;;23.13;37.55;100518.80;108297;1278;22938;-78
2022/07/15 06:43:19;;;;;;;5.90;1.70;;;;;;;23.23;37.63;100522.30;108348;1276;21993;-73
2022/07/15 06:46:10;;;;;;;4.30;1.80;;;;;;;23.38;37.54;100522.85;108420;1274;22109;-74
2022/07/15 06:48:41;;;;;;;6.90;1.50;;;;;;;23.51;36.72;100528.58;108728;1276;22013;-72
2022/07/15 06:51:11;;;;;;;3.00;1.10;;;;;;;23.52;36.30;100529.46;108466;1276;21983;-73
2022/07/15 06:53:41;;;;;;;4.30;1.30;;;;;;;23.57;36.03;100532.27;108431;1272;22109;-74
2022/07/15 06:56:10;;;;;;;5.60;1.40;;;;;;;23.54;35.43;100531.31;108773;1267;21975;-72
2022/07/15 06:58:41;;;;;;;3.90;1.10;;;;;;;23.43;35.27;100536.39;109157;1260;22747;-73
2022/07/15 07:01:10;;;;;;;4.50;1.10;;;;;;;23.36;35.53;100536.66;109084;1267;21968;-74
2022/07/15 07:03:42;;;;;;;6.70;1.40;;;;;;;23.35;35.21;100538.75;109309;1264;23055;-74
2022/07/15 07:06:29;;;;;;;11.00;1.90;;;;;;;23.38;34.70;100536.55;109267;1264;23843;-73
2022/07/15 07:08:58;;;;;;;5.10;1.10;;;;;;;23.33;34.02;100535.77;109165;1265;22039;-73
2022/07/15 07:11:28;;;;;;;3.20;1.00;;;;;;;23.27;34.27;100533.02;108851;1270;21999;-73
2022/07/15 07:13:57;;;;;;;5.00;1.20;;;;;;;23.32;34.16;100532.95;108874;1270;23687;-73
2022/07/15 07:16:26;;;;;;;6.20;1.10;;;;;;;23.40;34.18;100533.01;108841;1270;21992;-77
2022/07/15 07:18:56;;;;;;;3.90;1.10;;;;;;;23.53;33.91;100534.75;108546;1267;23049;-75
2022/07/15 07:21:25;;;;;;;6.60;1.30;;;;;;;23.46;33.07;100539.39;108895;1268;22185;-75
2022/07/15 07:23:59;;;;;;;5.20;1.20;;;;;;;23.16;32.84;100541.27;108915;1267;21962;-75
2022/07/15 07:26:28;;;;;;;4.50;1.30;;;;;;;23.09;34.08;100538.38;108750;1270;21978;-75
2022/07/15 07:28:58;;;;;;;4.40;1.00;;;;;;;23.34;34.32;100539.28;108670;1271;23726;-75
2022/07/15 07:31:28;;;;;;;5.10;1.20;;;;;;;23.43;32.91;100536.21;108816;1270;21989;-75
2022/07/15 07:33:58;;;;;;;7.60;1.40;;;;;;;23.20;32.04;100540.73;108637;1273;21986;-75
2022/07/15 07:36:27;;;;;;;5.70;1.30;;;;;;;22.90;32.25;100547.64;108616;1270;22146;-75
2022/07/15 07:38:56;;;;;;;5.10;1.50;;;;;;;22.69;32.89;100542.27;108622;1273;22104;-74
2022/07/15 07:41:25;;;;;;;1.80;0.70;;;;;;;22.49;32.75;100536.60;108745;1271;21985;-75
2022/07/15 07:43:54;;;;;;;3.10;1.10;;;;;;;22.36;33.37;100539.63;108831;1269;22783;-75
2022/07/15 07:46:23;;;;;;;4.90;1.10;;;;;;;22.41;34.01;100545.02;109200;1261;22330;-74
2022/07/15 07:48:52;;;;;;;3.50;1.20;;;;;;;22.43;33.43;100550.48;109580;1263;23713;-75
2022/07/15 07:51:42;;;;;;;3.80;1.00;;;;;;;22.58;34.29;100554.20;109241;1265;22013;-75
2022/07/15 07:54:12;;;;;;;5.40;1.30;;;;;;;22.92;33.78;100550.54;108753;1268;24395;-75
2022/07/15 07:56:42;;;;;;;8.20;1.90;;;;;;;23.06;32.44;100552.98;108913;1268;22026;-75
2022/07/15 07:59:12;;;;;;;4.40;1.10;;;;;;;23.01;32.08;100553.46;108836;1268;21968;-74
2022/07/15 08:01:43;;;;;;;9.20;1.20;;;;;;;23.12;32.42;100553.29;109162;1268;21992;-74
2022/07/15 08:04:14;;;;;;;7.60;1.00;;;;;;;23.39;32.43;100550.68;108853;1268;21968;-74
2022/07/15 08:06:43;;;;;;;3.10;0.80;;;;;;;23.70;31.69;100557.66;108976;1268;22185;-74
2022/07/15 08:09:12;;;;;;;3.50;1.00;;;;;;;23.72;30.44;100561.07;108873;1268;21970;-74
2022/07/15 08:11:47;;;;;;;5.30;0.70;;;;;;;23.36;29.93;100562.48;108932;1265;21962;-74
2022/07/15 08:14:18;;;;;;;3.40;1.40;;;;;;;23.02;30.70;100565.33;108676;1270;21984;-75
2022/07/15 08:16:51;;;;;;;3.70;1.00;;;;;;;22.89;31.24;100567.34;108886;1270;23074;-75
2022/07/15 08:19:21;;;;;;;9.10;0.90;;;;;;;22.68;31.41;100570.35;108877;1269;21988;-75
2022/07/15 08:21:50;;;;;;;5.90;1.30;;;;;;;22.65;32.52;100570.86;109068;1266;23777;-74
2022/07/15 08:24:20;;;;;;;7.60;1.00;;;;;;;22.77;32.36;100568.31;108921;1267;21969;-75
2022/07/15 08:26:49;;;;;;;5.60;1.00;;;;;;;22.93;31.95;100569.63;109042;1266;23137;-75
2022/07/15 08:29:21;;;;;;;2.80;0.90;;;;;;;23.21;31.97;100573.44;108967;1267;22477;-75
2022/07/15 08:31:53;;;;;;;7.80;1.00;;;;;;;23.49;31.22;100567.38;108940;1263;23094;-74
2022/07/15 08:34:47;;;;;;;46.80;4.00;;;;;;;23.72;30.76;100566.42;109737;1260;24427;-75
2022/07/15 08:37:16;;;;;;;6.80;1.00;;;;;;;23.66;29.84;100570.16;109710;1261;22053;-73
2022/07/15 08:39:46;;;;;;;5.80;1.00;;;;;;;23.41;29.47;100579.39;109013;1266;21982;-74
2022/07/15 08:42:17;;;;;;;4.70;1.20;;;;;;;23.10;29.95;100578.04;108992;1267;24303;-74
2022/07/15 08:44:47;;;;;;;2.50;1.10;;;;;;;23.11;30.75;100577.05;108429;1273;23831;-74
2022/07/15 08:47:16;;;;;;;4.50;1.40;;;;;;;23.20;30.53;100578.70;108598;1275;22052;-75
2022/07/15 08:50:08;;;;;;;7.50;1.00;;;;;;;22.91;29.89;100579.45;108496;1273;23612;-74
2022/07/15 08:52:38;;;;;;;5.80;1.10;;;;;;;22.59;30.53;100583.30;108637;1273;23094;-74
2022/07/15 08:55:08;;;;;;;3.80;0.90;;;;;;;22.53;31.21;100580.50;108623;1273;22556;-74
2022/07/15 08:57:38;;;;;;;3.30;0.80;;;;;;;22.35;30.79;100588.34;108717;1267;21981;-74
2022/07/15 09:00:12;;;;;;;5.20;0.90;;;;;;;22.05;30.64;100597.88;108929;1267;23052;-74
2022/07/15 09:02:44;;;;;;;3.30;0.70;;;;;;;21.68;30.65;100601.92;108990;1263;22918;-74
2022/07/15 09:05:23;;;;;;;5.10;1.20;;;;;;;21.50;31.88;100597.29;109517;1264;22008;-74
2022/07/15 09:08:10;;;;;;;5.50;1.30;;;;;;;21.61;32.41;100600.27;109559;1264;23671;-74
2022/07/15 09:10:47;;;;;;;6.10;0.70;;;;;;;21.80;32.41;100601.44;109234;1265;21975;-74
2022/07/15 09:13:32;;;;;;;3.20;0.70;;;;;;;21.90;31.98;100601.81;109459;1265;21979;-75
2022/07/15 09:16:08;;;;;;;8.70;1.80;;;;;;;21.83;31.65;100605.05;109149;1265;22914;-74
2022/07/15 09:18:41;;;;;;;3.20;0.90;;;;;;;21.95;32.84;100604.81;109329;1265;23031;-74
2022/07/15 09:21:28;;;;;;;3.60;0.90;;;;;;;22.28;32.17;100604.39;109212;1265;21974;-74
2022/07/15 09:24:17;;;;;;;2.50;1.00;;;;;;;22.36;31.02;100600.36;109140;1267;22082;-75
2022/07/15 09:26:46;;;;;;;6.30;1.20;;;;;;;22.52;31.43;100605.73;109223;1265;22547;-74
2022/07/15 09:35:04;;;;;;;7.00;1.10;;;;;;;23.01;30.87;100605.27;109374;1264;23087;-75
2022/07/15 09:37:33;;;;;;;3.80;0.60;;;;;;;23.04;30.42;100607.28;109541;1264;22969;-75
2022/07/15 09:40:03;;;;;;;2.80;0.80;;;;;;;23.00;30.07;100608.66;109592;1264;21987;-74
2022/07/15 09:42:32;;;;;;;4.20;1.20;;;;;;;22.91;30.09;100607.68;109610;1263;22928;-74
2022/07/15 09:45:20;;;;;;;3.90;0.70;;;;;;;22.79;30.38;100609.77;109686;1264;23848;-75
2022/07/15 09:48:08;;;;;;;5.80;0.70;;;;;;;22.58;30.55;100609.08;109682;1263;22133;-75
2022/07/15 09:50:39;;;;;;;4.10;1.00;;;;;;;22.38;30.81;100607.50;109080;1267;21978;-75
2022/07/15 09:53:14;;;;;;;6.10;1.10;;;;;;;22.20;31.07;100608.86;108493;1275;24336;-74
2022/07/15 09:55:43;;;;;;;2.50;0.60;;;;;;;22.07;31.20;100607.60;108593;1272;21986;-75
2022/07/15 09:58:13;;;;;;;3.10;0.70;;;;;;;21.89;31.00;100608.89;108582;1273;23654;-75
2022/07/15 10:00:42;;;;;;;2.00;0.70;;;;;;;21.70;31.31;100613.96;108591;1272;22185;-75
2022/07/15 10:03:11;;;;;;;2.70;0.80;;;;;;;21.53;31.64;100611.22;108604;1275;22886;-74
2022/07/15 10:05:40;;;;;;;4.50;2.70;;;;;;;21.35;31.81;100617.02;108622;1272;23784;-73
2022/07/15 10:08:14;;;;;;;6.60;0.70;;;;;;;21.22;32.20;100621.79;108684;1269;21991;-74
2022/07/15 10:10:43;;;;;;;3.50;1.00;;;;;;;21.10;32.57;100619.99;108946;1264;21975;-75
2022/07/15 10:13:43;;;;;;;2.70;0.90;;;;;;;20.98;32.69;100618.03;109250;1267;21975;-74
2022/07/15 10:16:53;;;;;;;4.00;0.80;;;;;;;20.91;33.02;100619.75;108880;1270;21991;-74
2022/07/15 10:19:37;;;;;;;4.80;0.90;;;;;;;21.04;33.70;100621.61;108403;1276;23834;-74
2022/07/15 10:22:19;;;;;;;3.50;0.90;;;;;;;21.46;33.71;100612.33;108290;1279;23707;-76
2022/07/15 10:25:51;;;;;;;4.90;0.80;;;;;;;21.75;32.55;100611.98;108308;1279;23206;-76
2022/07/15 10:28:45;;;;;;;3.90;1.00;;;;;;;21.68;31.27;100613.16;107768;1285;22526;-74
2022/07/15 10:31:26;;;;;;;3.90;1.10;;;;;;;21.44;31.21;100617.73;107928;1282;22132;-76
2022/07/15 10:34:01;;;;;;;2.40;0.60;;;;;;;21.22;31.56;100621.13;107999;1282;21988;-75
2022/07/15 10:36:45;;;;;;;5.30;0.70;;;;;;;21.05;32.03;100626.35;108250;1279;22439;-76
2022/07/15 10:39:21;;;;;;;7.60;1.50;;;;;;;21.00;32.86;100622.48;108285;1280;22221;-77
2022/07/15 10:42:01;;;;;;;3.20;1.10;;;;;;;20.97;33.08;100620.70;108351;1279;23572;-76
2022/07/15 10:44:48;;;;;;;4.40;1.00;;;;;;;21.11;33.76;100619.65;108427;1279;21997;-76
2022/07/15 10:47:24;;;;;;;2.00;0.60;;;;;;;21.31;33.31;100610.79;108365;1276;21995;-76
2022/07/15 10:50:40;;;;;;;5.50;1.00;;;;;;;21.50;32.75;100609.65;108325;1279;21994;-76
2022/07/15 10:53:19;;;;;;;5.80;1.20;;;;;;;21.54;32.14;100613.17;108254;1278;22027;-76
2022/07/15 10:55:52;;;;;;;7.20;1.10;;;;;;;21.47;32.04;100616.02;108404;1273;21997;-76
2022/07/15 10:58:22;;;;;;;4.20;1.00;;;;;;;21.32;32.13;100619.31;108370;1277;22779;-76
2022/07/15 11:00:52;;;;;;;4.20;0.80;;;;;;;21.22;32.32;100619.96;108527;1276;21991;-74
2022/07/15 11:03:21;;;;;;;3.70;0.50;;;;;;;21.16;32.31;100624.12;109228;1264;22432;-75
2022/07/15 11:05:50;;;;;;;2.50;1.00;;;;;;;21.13;32.29;100621.10;108818;1271;22085;-75
2022/07/15 11:08:55;;;;;;;3.00;0.90;;;;;;;21.14;32.35;100615.30;108404;1275;22058;-75
2022/07/15 11:11:24;;;;;;;3.20;0.90;;;;;;;21.22;32.73;100614.43;108203;1279;22046;-75
2022/07/15 11:13:53;;;;;;;3.60;1.20;;;;;;;21.43;32.89;100617.11;108357;1279;22008;-74
2022/07/15 11:16:22;;;;;;;5.70;1.10;;;;;;;21.57;32.22;100616.64;108341;1276;21988;-76
2022/07/15 11:18:57;;;;;;;5.20;1.10;;;;;;;21.57;31.86;100622.70;108305;1279;23169;-74
2022/07/15 11:21:28;;;;;;;3.00;1.10;;;;;;;21.51;31.72;100622.58;108172;1276;21979;-75
2022/07/15 11:23:59;;;;;;;5.50;0.90;;;;;;;21.43;31.88;100623.58;108482;1273;21990;-74
2022/07/15 11:26:46;;;;;;;2.40;0.80;;;;;;;21.38;32.23;100617.38;108750;1267;23346;-74
2022/07/15 11:29:15;;;;;;;3.50;0.70;;;;;;;21.39;32.17;100619.48;109124;1268;22059;-76
2022/07/15 11:31:48;;;;;;;3.80;1.00;;;;;;;21.32;31.81;100619.95;109031;1267;22035;-75
2022/07/15 11:34:18;;;;;;;3.80;0.80;;;;;;;21.27;32.04;100615.10;109061;1267;21991;-74
2022/07/15 11:36:59;;;;;;;4.50;0.70;;;;;;;21.27;31.92;100620.77;109048;1267;23815;-75
2022/07/15 11:39:28;;;;;;;5.30;0.80;;;;;;;21.19;31.81;100622.05;108710;1273;22005;-74
2022/07/15 11:44:50;;;;;;;5.00;1.00;;;;;;;21.02;32.31;100621.35;108684;1273;23617;-76
2022/07/15 11:47:22;;;;;;;3.90;1.10;;;;;;;20.96;32.16;100620.71;108834;1269;22234;-74
2022/07/15 11:50:04;;;;;;;2.50;0.70;;;;;;;20.88;31.98;100616.66;109030;1265;21975;-78
2022/07/15 11:52:35;;;;;;;4.80;0.90;;;;;;;20.81;32.08;100618.08;109183;1267;21983;-76
2022/07/15 11:58:04;;;;;;;3.60;0.90;;;;;;;20.75;31.46;100621.78;109312;1263;21973;-78